createdAt,value
2023-05-09T00:01:31.809Z,20.23
2023-05-09T00:03:59.805Z,17.95
2023-05-09T00:06:27.997Z,17.52
2023-05-09T00:08:55.942Z,17.50
2023-05-09T00:11:23.238Z,17.30
2023-05-09T00:13:51.234Z,19.17
2023-05-09T00:16:18.922Z,19.60
2023-05-09T00:18:47.594Z,19.92
2023-05-09T00:21:14.646Z,14.93
2023-05-09T00:23:41.717Z,18.75
2023-05-09T00:26:10.454Z,16.27
2023-05-09T00:28:39.140Z,19.30
2023-05-09T00:31:06.204Z,21.42
2023-05-09T00:33:33.215Z,17.58
2023-05-09T00:36:00.377Z,19.77
2023-05-09T00:38:27.383Z,22.30
2023-05-09T00:40:54.397Z,22.13
2023-05-09T00:43:21.733Z,23.13
2023-05-09T00:45:49.571Z,24.02
2023-05-09T00:48:16.952Z,17.80
2023-05-09T00:50:44.228Z,25.42
2023-05-09T00:53:11.959Z,22.67
2023-05-09T00:55:39.137Z,20.88
2023-05-09T00:58:06.375Z,18.10
2023-05-09T01:00:33.768Z,23.05
2023-05-09T01:03:01.573Z,25.98
2023-05-09T01:05:40.778Z,23.55
2023-05-09T01:08:18.152Z,24.20
2023-05-09T01:11:09.650Z,19.80
2023-05-09T01:13:36.631Z,21.25
2023-05-09T01:16:16.786Z,20.63
2023-05-09T01:19:00.371Z,23.58
2023-05-09T01:21:30.634Z,20.67
2023-05-09T01:24:16.410Z,22.95
2023-05-09T01:27:07.534Z,19.85
2023-05-09T01:29:39.511Z,19.98
2023-05-09T01:32:10.913Z,20.42
2023-05-09T01:34:40.131Z,17.13
2023-05-09T01:37:07.511Z,21.13
2023-05-09T01:39:38.677Z,18.17
2023-05-09T01:42:08.537Z,23.40
2023-05-09T01:44:39.255Z,22.23
2023-05-09T01:47:07.920Z,17.92
2023-05-09T01:49:37.902Z,23.17
2023-05-09T01:52:09.131Z,17.40
2023-05-09T01:54:38.850Z,18.15
2023-05-09T01:57:08.445Z,22.90
2023-05-09T01:59:36.558Z,18.70
2023-05-09T02:02:04.732Z,18.20
2023-05-09T02:04:34.022Z,21.40
2023-05-09T02:07:02.756Z,19.30
2023-05-09T02:09:29.899Z,28.33
2023-05-09T02:11:56.919Z,28.20
2023-05-09T02:14:24.157Z,26.02
2023-05-09T02:16:51.604Z,22.58
2023-05-09T02:19:18.822Z,23.67
2023-05-09T02:21:46.015Z,24.52
2023-05-09T02:24:13.093Z,25.83
2023-05-09T02:26:41.002Z,20.45
2023-05-09T02:29:08.800Z,23.38
2023-05-09T02:31:37.124Z,22.75
2023-05-09T02:34:05.614Z,23.17
2023-05-09T02:36:35.365Z,24.85
2023-05-09T02:39:02.843Z,26.13
2023-05-09T02:41:30.924Z,33.15
2023-05-09T02:43:57.932Z,26.17
2023-05-09T02:46:24.998Z,27.80
2023-05-09T02:48:52.717Z,22.52
2023-05-09T02:51:20.102Z,22.92
2023-05-09T02:53:47.160Z,30.48
2023-05-09T02:56:14.244Z,23.50
2023-05-09T02:58:41.285Z,26.98
2023-05-09T03:01:08.394Z,24.50
2023-05-09T03:03:35.626Z,33.38
2023-05-09T03:06:04.891Z,57.20
2023-05-09T03:08:32.022Z,30.80
2023-05-09T03:10:59.109Z,35.55
2023-05-09T03:13:26.459Z,43.22
2023-05-09T03:15:53.612Z,35.63
2023-05-09T03:18:20.908Z,28.70
2023-05-09T03:20:47.921Z,40.28
2023-05-09T03:23:15.193Z,24.98
2023-05-09T03:25:42.240Z,44.33
2023-05-09T03:28:09.278Z,37.65
2023-05-09T03:30:36.835Z,29.90
2023-05-09T03:33:07.910Z,25.27
2023-05-09T03:35:34.917Z,24.75
2023-05-09T03:38:02.679Z,22.50
2023-05-09T03:40:29.752Z,20.95
2023-05-09T03:43:05.513Z,22.35
2023-05-09T03:45:32.827Z,27.67
2023-05-09T03:48:00.377Z,30.13
2023-05-09T03:50:27.478Z,20.67
2023-05-09T03:52:57.523Z,18.98
2023-05-09T03:55:25.056Z,24.60
2023-05-09T03:57:52.088Z,20.88
2023-05-09T04:00:19.705Z,20.40
2023-05-09T04:02:54.000Z,20.70
2023-05-09T04:05:33.811Z,20.23
2023-05-09T04:08:01.615Z,17.80
2023-05-09T04:10:30.232Z,19.88
2023-05-09T04:12:57.626Z,18.60
2023-05-09T04:15:24.810Z,20.83
2023-05-09T04:17:51.902Z,17.70
2023-05-09T04:20:18.983Z,20.83
2023-05-09T04:22:47.035Z,16.75
2023-05-09T04:25:17.133Z,17.13
2023-05-09T04:27:45.950Z,16.13
2023-05-09T04:30:13.339Z,16.98
2023-05-09T04:32:45.854Z,14.93
2023-05-09T04:35:14.312Z,14.00
2023-05-09T04:37:45.583Z,10.27
2023-05-09T04:40:13.530Z,12.35
2023-05-09T04:42:47.711Z,14.20
2023-05-09T04:45:15.793Z,11.90
2023-05-09T04:47:44.079Z,10.43
2023-05-09T04:50:11.662Z,10.95
2023-05-09T04:52:38.710Z,7.72
2023-05-09T04:55:06.506Z,6.40
2023-05-09T04:57:38.615Z,7.20
2023-05-09T05:00:11.676Z,7.63
2023-05-09T05:02:39.575Z,6.75
2023-05-09T05:05:12.139Z,7.00
2023-05-09T05:07:42.381Z,7.70
2023-05-09T05:10:11.518Z,5.00
2023-05-09T05:12:41.014Z,10.93
2023-05-09T05:15:11.571Z,7.40
2023-05-09T05:17:39.812Z,5.47
2023-05-09T05:20:10.989Z,8.55
2023-05-09T05:22:48.045Z,6.03
2023-05-09T05:25:17.859Z,5.63
2023-05-09T05:27:57.215Z,6.72
2023-05-09T05:30:29.942Z,10.13
2023-05-09T05:32:58.585Z,7.50
2023-05-09T05:35:28.393Z,6.55
2023-05-09T05:37:56.375Z,6.45
2023-05-09T05:40:23.496Z,5.93
2023-05-09T05:42:52.565Z,7.22
2023-05-09T05:45:20.246Z,7.45
2023-05-09T05:47:51.089Z,7.45
2023-05-09T05:50:18.963Z,6.07
2023-05-09T05:52:46.167Z,5.63
2023-05-09T05:55:15.934Z,4.05
2023-05-09T05:57:43.214Z,5.78
2023-05-09T06:00:15.059Z,5.05
2023-05-09T06:02:50.069Z,5.85
2023-05-09T06:05:28.614Z,5.38
2023-05-09T06:07:55.610Z,3.53
2023-05-09T06:10:22.763Z,4.10
2023-05-09T06:12:49.937Z,4.65
2023-05-09T06:15:18.041Z,5.85
2023-05-09T06:17:48.525Z,3.83
2023-05-09T06:20:15.596Z,4.85
2023-05-09T06:22:42.657Z,2.60
2023-05-09T06:25:10.593Z,4.07
2023-05-09T06:27:38.526Z,3.22
2023-05-09T06:30:21.423Z,2.90
2023-05-09T06:32:52.216Z,4.07
2023-05-09T06:35:19.340Z,3.92
2023-05-09T06:37:48.433Z,3.72
2023-05-09T06:40:16.449Z,3.35
2023-05-09T06:42:43.556Z,6.28
2023-05-09T06:45:11.634Z,13.88
2023-05-09T06:47:38.749Z,7.72
2023-05-09T06:50:06.439Z,4.32
2023-05-09T06:52:33.499Z,3.80
2023-05-09T06:55:00.607Z,3.53
2023-05-09T06:57:27.933Z,3.70
2023-05-09T06:59:54.989Z,4.47
2023-05-09T07:02:22.144Z,3.33
2023-05-09T07:04:49.305Z,2.95
2023-05-09T07:07:16.455Z,4.03
2023-05-09T07:09:43.636Z,3.28
2023-05-09T07:12:10.750Z,3.58
2023-05-09T07:14:38.346Z,3.70
2023-05-09T07:17:18.261Z,3.70
2023-05-09T07:19:49.560Z,2.83
2023-05-09T07:22:16.553Z,3.63
2023-05-09T07:24:46.677Z,3.15
2023-05-09T07:27:14.231Z,3.85
2023-05-09T07:29:41.323Z,4.10
2023-05-09T07:32:09.264Z,4.18
2023-05-09T07:34:36.760Z,3.47
2023-05-09T07:37:03.952Z,4.30
2023-05-09T07:39:31.107Z,3.13
2023-05-09T07:41:58.467Z,4.13
2023-05-09T07:44:25.896Z,5.03
2023-05-09T07:46:55.508Z,3.53
2023-05-09T07:49:22.729Z,5.85
2023-05-09T07:51:49.823Z,5.25
2023-05-09T07:54:16.978Z,2.95
2023-05-09T07:56:44.101Z,2.67
2023-05-09T07:59:12.420Z,3.08
2023-05-09T08:01:39.789Z,3.50
2023-05-09T08:04:09.206Z,3.45
2023-05-09T08:06:36.815Z,3.90
2023-05-09T08:09:04.938Z,3.08
2023-05-09T08:11:36.185Z,3.85
2023-05-09T08:14:03.568Z,3.22
2023-05-09T08:16:31.164Z,3.72
2023-05-09T08:18:58.385Z,2.80
2023-05-09T08:21:26.666Z,2.83
2023-05-09T08:23:53.980Z,3.80
2023-05-09T08:26:22.775Z,3.63
2023-05-09T08:28:50.013Z,2.95
2023-05-09T08:31:17.250Z,3.28
2023-05-09T08:33:44.458Z,4.05
2023-05-09T08:36:11.703Z,3.80
2023-05-09T08:38:40.721Z,4.05
2023-05-09T08:41:07.993Z,4.30
2023-05-09T08:43:35.839Z,3.35
2023-05-09T08:46:08.740Z,3.58
2023-05-09T08:48:39.127Z,3.92
2023-05-09T08:51:07.211Z,4.47
2023-05-09T08:53:34.949Z,3.15
2023-05-09T08:56:04.024Z,2.33
2023-05-09T08:58:32.096Z,3.40
2023-05-09T09:01:01.590Z,2.35
2023-05-09T09:03:28.958Z,3.25
2023-05-09T09:05:56.743Z,3.20
2023-05-09T09:08:25.232Z,3.40
2023-05-09T09:10:52.929Z,3.15
2023-05-09T09:13:22.076Z,3.00
2023-05-09T09:15:49.762Z,2.75
2023-05-09T09:18:22.279Z,2.63
2023-05-09T09:21:00.039Z,4.70
2023-05-09T09:23:29.296Z,3.40
2023-05-09T09:26:01.376Z,3.35
2023-05-09T09:28:29.057Z,2.95
2023-05-09T09:30:56.372Z,3.35
2023-05-09T09:33:25.312Z,3.63
2023-05-09T09:35:53.854Z,4.40
2023-05-09T09:38:22.055Z,2.70
2023-05-09T09:40:52.511Z,4.18
2023-05-09T09:43:20.005Z,8.45
2023-05-09T09:45:51.479Z,6.45
2023-05-09T09:48:18.865Z,5.10
2023-05-09T09:50:48.485Z,3.95
2023-05-09T09:53:16.462Z,4.68
2023-05-09T09:55:52.152Z,4.40
2023-05-09T09:58:25.141Z,3.88
2023-05-09T10:01:16.902Z,3.25
2023-05-09T10:03:48.318Z,3.05
2023-05-09T10:06:17.068Z,3.80
2023-05-09T10:08:49.098Z,3.10
2023-05-09T10:11:16.608Z,2.97
2023-05-09T10:13:44.722Z,3.30
2023-05-09T10:16:13.626Z,3.15
2023-05-09T10:18:43.262Z,2.88
2023-05-09T10:21:15.343Z,3.40
2023-05-09T10:23:48.681Z,2.92
2023-05-09T10:26:23.106Z,2.10
2023-05-09T10:28:55.840Z,3.13
2023-05-09T10:31:27.084Z,2.97
2023-05-09T10:33:56.044Z,3.72
2023-05-09T10:36:26.528Z,4.35
2023-05-09T10:38:55.555Z,3.90
2023-05-09T10:41:23.888Z,5.00
2023-05-09T10:43:51.510Z,3.63
2023-05-09T10:46:19.436Z,6.05
2023-05-09T10:48:48.984Z,4.65
2023-05-09T10:51:17.552Z,2.63
2023-05-09T10:53:49.876Z,3.28
2023-05-09T10:56:29.886Z,3.35
2023-05-09T10:58:57.492Z,4.20
2023-05-09T11:01:37.580Z,3.33
2023-05-09T11:04:23.937Z,3.67
2023-05-09T11:06:54.006Z,2.85
2023-05-09T11:09:34.654Z,5.38
2023-05-09T11:12:02.366Z,6.47
2023-05-09T11:14:49.564Z,3.50
2023-05-09T11:17:22.947Z,4.60
2023-05-09T11:19:50.469Z,3.78
2023-05-09T11:22:32.828Z,3.65
2023-05-09T11:25:08.144Z,3.08
2023-05-09T11:27:49.976Z,3.55
2023-05-09T11:30:19.843Z,3.05
2023-05-09T11:32:52.473Z,3.72
2023-05-09T11:35:21.603Z,5.13
2023-05-09T11:37:54.804Z,3.42
2023-05-09T11:40:24.211Z,3.05
2023-05-09T11:42:58.362Z,4.07
2023-05-09T11:45:28.775Z,4.45
2023-05-09T11:48:01.223Z,3.03
2023-05-09T11:50:28.771Z,3.33
2023-05-09T11:52:56.511Z,4.50
2023-05-09T11:55:25.666Z,3.75
2023-05-09T11:57:54.491Z,3.53
2023-05-09T12:00:23.813Z,3.33
2023-05-09T12:02:51.823Z,3.60
2023-05-09T12:05:21.354Z,5.63
2023-05-09T12:07:48.991Z,3.70
2023-05-09T12:10:23.364Z,3.95
2023-05-09T12:12:53.019Z,3.50
2023-05-09T12:15:21.791Z,5.03
2023-05-09T12:18:03.213Z,4.13
2023-05-09T12:20:48.148Z,6.20
2023-05-09T12:23:15.449Z,3.67
2023-05-09T12:25:56.905Z,4.20
2023-05-09T12:28:25.545Z,3.42
2023-05-09T12:30:54.033Z,4.70
2023-05-09T12:33:21.447Z,3.40
2023-05-09T12:36:00.856Z,3.08
2023-05-09T12:38:28.150Z,3.92
2023-05-09T12:41:03.967Z,3.75
2023-05-09T12:43:36.556Z,3.47
2023-05-09T12:46:04.600Z,5.28
2023-05-09T12:48:38.431Z,3.17
2023-05-09T12:51:08.359Z,5.40
2023-05-09T12:53:42.375Z,4.53
2023-05-09T12:56:17.331Z,4.00
2023-05-09T12:58:54.212Z,4.40
2023-05-09T13:01:27.917Z,3.40
2023-05-09T13:04:06.135Z,4.43
2023-05-09T13:06:34.911Z,5.18
2023-05-09T13:09:05.847Z,5.45
2023-05-09T13:11:33.370Z,4.85
2023-05-09T13:14:00.565Z,4.95
2023-05-09T13:16:28.198Z,6.43
2023-05-09T13:18:55.499Z,3.75
2023-05-09T13:21:22.631Z,5.00
2023-05-09T13:23:51.296Z,4.43
2023-05-09T13:26:18.600Z,4.25
2023-05-09T13:28:45.826Z,8.63
2023-05-09T13:31:12.862Z,7.85
2023-05-09T13:33:40.209Z,4.32
2023-05-09T13:36:07.562Z,3.80
2023-05-09T13:38:38.865Z,9.02
2023-05-09T13:41:10.070Z,4.57
2023-05-09T13:43:39.228Z,4.05
2023-05-09T13:46:06.587Z,5.30
2023-05-09T13:48:33.709Z,5.18
2023-05-09T13:51:01.529Z,3.97
2023-05-09T13:53:28.781Z,4.18
2023-05-09T13:55:55.819Z,3.83
2023-05-09T13:58:23.032Z,4.85
2023-05-09T14:00:50.422Z,4.30
2023-05-09T14:03:17.718Z,4.88
2023-05-09T14:05:45.042Z,5.00
2023-05-09T14:08:12.369Z,5.95
2023-05-09T14:10:39.432Z,4.28
2023-05-09T14:13:08.532Z,5.05
2023-05-09T14:15:35.999Z,6.88
2023-05-09T14:18:03.356Z,5.00
2023-05-09T14:20:30.431Z,5.40
2023-05-09T14:23:00.721Z,4.43
2023-05-09T14:25:28.024Z,5.88
2023-05-09T14:27:55.159Z,4.25
2023-05-09T14:30:22.263Z,4.22
2023-05-09T14:32:49.341Z,4.95
2023-05-09T14:35:16.519Z,5.10
2023-05-09T14:37:43.766Z,3.80
2023-05-09T14:40:11.001Z,4.68
2023-05-09T14:42:38.165Z,4.13
2023-05-09T14:45:07.316Z,4.28
2023-05-09T14:47:34.476Z,4.95
2023-05-09T14:50:01.527Z,5.18
2023-05-09T14:52:31.416Z,4.97
2023-05-09T14:54:59.895Z,4.25
2023-05-09T14:57:27.018Z,5.47
2023-05-09T14:59:54.046Z,5.30
2023-05-09T15:02:21.098Z,4.38
2023-05-09T15:04:48.131Z,2.85
2023-05-09T15:07:15.243Z,8.63
2023-05-09T15:09:42.334Z,6.25
2023-05-09T15:12:09.515Z,5.28
2023-05-09T15:14:36.871Z,4.57
2023-05-09T15:17:04.458Z,3.20
2023-05-09T15:19:32.612Z,6.10
2023-05-09T15:22:00.651Z,4.35
2023-05-09T15:24:27.851Z,5.55
2023-05-09T15:26:54.892Z,6.63
2023-05-09T15:29:22.050Z,4.95
2023-05-09T15:31:49.219Z,3.25
2023-05-09T15:34:17.138Z,4.47
2023-05-09T15:36:44.336Z,6.20
2023-05-09T15:39:11.527Z,4.68
2023-05-09T15:41:38.580Z,4.00
2023-05-09T15:44:05.568Z,4.57
2023-05-09T15:46:33.265Z,4.40
2023-05-09T15:49:00.694Z,3.92
2023-05-09T15:51:30.208Z,4.50
2023-05-09T15:53:57.281Z,3.80
2023-05-09T15:56:24.406Z,3.75
2023-05-09T15:58:51.463Z,3.78
2023-05-09T16:01:18.749Z,3.38
2023-05-09T16:03:46.117Z,3.95
2023-05-09T16:06:13.563Z,7.57
2023-05-09T16:08:40.764Z,4.15
2023-05-09T16:11:08.093Z,4.97
2023-05-09T16:13:36.049Z,6.90
2023-05-09T16:16:03.724Z,5.75
2023-05-09T16:18:30.911Z,4.88
2023-05-09T16:20:57.992Z,5.32
2023-05-09T16:23:26.078Z,3.90
2023-05-09T16:25:54.117Z,4.57
2023-05-09T16:28:23.649Z,5.05
2023-05-09T16:30:51.726Z,5.32
2023-05-09T16:33:18.812Z,6.68
2023-05-09T16:35:46.668Z,5.30
2023-05-09T16:38:13.861Z,5.75
2023-05-09T16:40:40.903Z,5.95
2023-05-09T16:43:07.958Z,6.30
2023-05-09T16:45:35.186Z,4.93
2023-05-09T16:48:02.605Z,5.55
2023-05-09T16:50:30.023Z,5.15
2023-05-09T16:52:57.126Z,7.15
2023-05-09T16:55:24.260Z,6.47
2023-05-09T16:57:51.306Z,5.60
2023-05-09T17:00:18.891Z,5.32
2023-05-09T17:02:46.010Z,5.22
2023-05-09T17:05:13.137Z,7.78
2023-05-09T17:07:40.155Z,8.27
2023-05-09T17:10:07.670Z,9.65
2023-05-09T17:12:35.310Z,10.20
2023-05-09T17:15:02.446Z,12.02
2023-05-09T17:17:32.130Z,8.75
2023-05-09T17:20:01.073Z,8.77
2023-05-09T17:22:30.982Z,13.40
2023-05-09T17:24:58.059Z,13.25
2023-05-09T17:27:25.844Z,13.65
2023-05-09T17:29:52.869Z,24.58
2023-05-09T17:32:19.923Z,13.30
2023-05-09T17:34:47.073Z,17.23
2023-05-09T17:37:14.214Z,16.83
2023-05-09T17:39:42.436Z,14.20
2023-05-09T17:42:10.335Z,16.17
2023-05-09T17:44:39.458Z,16.33
2023-05-09T17:47:06.685Z,22.63
2023-05-09T17:49:33.706Z,21.90
2023-05-09T17:52:01.478Z,14.05
2023-05-09T17:54:29.343Z,11.05
2023-05-09T17:56:59.305Z,13.00
2023-05-09T17:59:26.338Z,17.70
2023-05-09T18:01:54.423Z,13.98
2023-05-09T18:04:22.029Z,13.18
2023-05-09T18:06:50.009Z,17.20
2023-05-09T18:09:17.496Z,17.10
2023-05-09T18:11:44.721Z,17.02
2023-05-09T18:14:13.113Z,13.85
2023-05-09T18:16:40.247Z,14.98
2023-05-09T18:19:07.421Z,12.02
2023-05-09T18:21:34.546Z,13.25
2023-05-09T18:24:01.622Z,14.52
2023-05-09T18:26:28.859Z,13.60
2023-05-09T18:28:55.903Z,13.13
2023-05-09T18:31:22.891Z,13.40
2023-05-09T18:33:50.293Z,19.95
2023-05-09T18:36:17.305Z,16.33
2023-05-09T18:38:44.656Z,13.93
2023-05-09T18:41:12.858Z,14.10
2023-05-09T18:43:45.947Z,11.15
2023-05-09T18:46:18.104Z,17.80
2023-05-09T18:48:46.042Z,14.30
2023-05-09T18:51:13.273Z,15.70
2023-05-09T18:53:40.599Z,11.93
2023-05-09T18:56:08.978Z,11.27
2023-05-09T18:58:36.962Z,13.45
2023-05-09T19:01:04.691Z,15.60
2023-05-09T19:03:32.180Z,14.25
2023-05-09T19:06:00.075Z,13.43
2023-05-09T19:08:27.449Z,16.50
2023-05-09T19:10:54.718Z,19.77
2023-05-09T19:13:21.947Z,16.50
2023-05-09T19:15:49.201Z,12.10
2023-05-09T19:18:16.622Z,13.45
2023-05-09T19:20:43.821Z,17.13
2023-05-09T19:23:12.221Z,16.40
2023-05-09T19:25:39.357Z,15.15
2023-05-09T19:28:06.687Z,17.80
2023-05-09T19:30:34.250Z,15.15
2023-05-09T19:33:01.439Z,12.73
2023-05-09T19:35:28.417Z,15.23
2023-05-09T19:37:55.436Z,16.92
2023-05-09T19:40:22.543Z,15.73
2023-05-09T19:42:49.565Z,15.85
2023-05-09T19:45:16.724Z,18.50
2023-05-09T19:47:43.853Z,16.48
2023-05-09T19:50:11.174Z,14.93
2023-05-09T19:52:38.300Z,16.55
2023-05-09T19:55:06.147Z,18.58
2023-05-09T19:57:33.502Z,13.60
2023-05-09T20:00:00.572Z,15.13
2023-05-09T20:02:27.743Z,15.02
2023-05-09T20:04:54.827Z,17.77
2023-05-09T20:07:21.812Z,16.33
2023-05-09T20:09:48.921Z,20.88
2023-05-09T20:12:16.015Z,17.85
2023-05-09T20:14:44.375Z,16.42
2023-05-09T20:17:11.506Z,15.65
2023-05-09T20:19:38.768Z,22.98
2023-05-09T20:22:06.699Z,19.92
2023-05-09T20:24:33.796Z,19.48
2023-05-09T20:27:02.595Z,22.75
2023-05-09T20:29:29.640Z,16.55
2023-05-09T20:31:57.122Z,19.98
2023-05-09T20:34:24.859Z,19.58
2023-05-09T20:36:55.199Z,21.88
2023-05-09T20:39:23.286Z,19.85
2023-05-09T20:41:51.586Z,23.30
2023-05-09T20:44:19.309Z,21.05
2023-05-09T20:46:46.453Z,18.85
2023-05-09T20:49:13.994Z,21.73
2023-05-09T20:51:41.326Z,16.73
2023-05-09T20:54:08.555Z,17.20
2023-05-09T20:56:35.870Z,14.45
2023-05-09T20:59:04.457Z,15.55
2023-05-09T21:01:35.542Z,17.63
2023-05-09T21:04:05.898Z,15.15
2023-05-09T21:06:33.364Z,20.15
2023-05-09T21:09:00.606Z,16.83
2023-05-09T21:11:27.787Z,21.20
2023-05-09T21:13:54.800Z,22.75
2023-05-09T21:16:22.215Z,23.38
2023-05-09T21:18:49.270Z,27.42
2023-05-09T21:21:16.386Z,26.27
2023-05-09T21:23:43.521Z,27.00
2023-05-09T21:26:10.511Z,27.27
2023-05-09T21:28:37.560Z,20.75
2023-05-09T21:31:04.839Z,29.77
2023-05-09T21:33:31.936Z,27.77
2023-05-09T21:35:59.487Z,32.10
2023-05-09T21:38:26.543Z,23.30
2023-05-09T21:40:53.650Z,24.83
2023-05-09T21:43:20.667Z,24.85
2023-05-09T21:45:47.649Z,24.23
2023-05-09T21:48:14.740Z,22.60
2023-05-09T21:50:46.108Z,25.17
2023-05-09T21:53:14.387Z,27.75
2023-05-09T21:55:41.580Z,22.73
2023-05-09T21:58:08.672Z,21.95
2023-05-09T22:00:35.862Z,21.83
2023-05-09T22:03:03.196Z,19.65
2023-05-09T22:05:30.374Z,23.15
2023-05-09T22:07:57.377Z,16.27
2023-05-09T22:10:24.503Z,18.35
2023-05-09T22:12:51.648Z,21.65
2023-05-09T22:15:18.681Z,20.50
2023-05-09T22:17:45.968Z,22.45
2023-05-09T22:20:13.069Z,28.58
2023-05-09T22:22:40.341Z,27.88
2023-05-09T22:25:07.526Z,27.75
2023-05-09T22:27:34.661Z,38.15
2023-05-09T22:30:02.914Z,26.95
2023-05-09T22:32:32.794Z,26.35
2023-05-09T22:34:59.905Z,24.38
2023-05-09T22:37:26.998Z,22.17
2023-05-09T22:39:54.085Z,25.63
2023-05-09T22:42:21.117Z,25.17
2023-05-09T22:44:49.900Z,25.63
2023-05-09T22:47:17.034Z,22.70
2023-05-09T22:49:45.729Z,23.50
2023-05-09T22:52:13.101Z,19.95
2023-05-09T22:54:40.667Z,22.38
2023-05-09T22:57:07.730Z,20.73
2023-05-09T22:59:34.881Z,22.88
2023-05-09T23:02:01.913Z,18.92
2023-05-09T23:04:28.996Z,25.70
2023-05-09T23:06:56.270Z,20.52
2023-05-09T23:09:23.475Z,18.13
2023-05-09T23:11:50.497Z,22.52
2023-05-09T23:14:17.697Z,22.73
2023-05-09T23:16:44.788Z,22.98
2023-05-09T23:19:11.819Z,21.90
2023-05-09T23:21:38.900Z,18.58
2023-05-09T23:24:06.288Z,16.98
2023-05-09T23:26:33.538Z,20.65
2023-05-09T23:29:00.558Z,23.35
2023-05-09T23:31:27.614Z,19.38
2023-05-09T23:33:54.741Z,23.38
2023-05-09T23:36:21.882Z,24.00
2023-05-09T23:38:49.029Z,22.02
2023-05-09T23:41:16.129Z,19.95
2023-05-09T23:43:43.276Z,20.55
2023-05-09T23:46:10.288Z,26.95
2023-05-09T23:48:37.489Z,21.02
2023-05-09T23:51:04.721Z,25.75
2023-05-09T23:53:35.149Z,27.23
2023-05-09T23:56:03.004Z,22.63
2023-05-09T23:58:30.324Z,20.02
